createdAt,value
2023-05-06T00:00:00.444Z,0
2023-05-06T00:05:00.460Z,0
2023-05-06T00:10:00.450Z,0
2023-05-06T00:15:00.439Z,0
2023-05-06T00:20:00.450Z,0
2023-05-06T00:25:00.428Z,0
2023-05-06T00:30:00.471Z,0
2023-05-06T00:35:00.516Z,0
2023-05-06T00:40:00.567Z,0
2023-05-06T00:45:00.465Z,0
2023-05-06T00:50:00.525Z,0
2023-05-06T00:55:00.471Z,0
2023-05-06T01:00:00.558Z,0
2023-05-06T01:05:00.597Z,0
2023-05-06T01:10:00.459Z,0
2023-05-06T01:15:00.509Z,0
2023-05-06T01:20:00.450Z,0
2023-05-06T01:25:00.461Z,0
2023-05-06T01:30:00.467Z,0
2023-05-06T01:35:00.444Z,0
2023-05-06T01:40:00.645Z,0
2023-05-06T01:45:00.463Z,0
2023-05-06T01:50:00.429Z,0
2023-05-06T01:55:00.532Z,0
2023-05-06T02:00:00.568Z,0
2023-05-06T02:05:00.482Z,0
2023-05-06T02:10:00.584Z,0
2023-05-06T02:15:00.443Z,0
2023-05-06T02:20:00.447Z,0
2023-05-06T02:25:00.509Z,0
2023-05-06T02:30:00.546Z,0
2023-05-06T02:35:00.460Z,0
2023-05-06T02:40:00.482Z,0
2023-05-06T02:45:00.462Z,0
2023-05-06T02:50:00.585Z,0
2023-05-06T02:55:00.475Z,0
2023-05-06T03:00:00.472Z,0
2023-05-06T03:05:00.560Z,0
2023-05-06T03:10:00.428Z,0
2023-05-06T03:15:00.498Z,0
2023-05-06T03:20:00.471Z,0
2023-05-06T03:25:00.550Z,0
2023-05-06T03:30:00.501Z,0
2023-05-06T03:35:00.485Z,0
2023-05-06T03:40:00.497Z,11
2023-05-06T03:45:00.502Z,25
2023-05-06T03:50:00.478Z,65
2023-05-06T03:55:00.433Z,129
2023-05-06T04:00:01.565Z,212
2023-05-06T04:05:00.487Z,296
2023-05-06T04:10:00.570Z,350
2023-05-06T04:15:00.447Z,486
2023-05-06T04:20:00.451Z,547
2023-05-06T04:25:00.450Z,616
2023-05-06T04:30:00.424Z,695
2023-05-06T04:35:00.606Z,879
2023-05-06T04:40:00.501Z,988
2023-05-06T04:45:00.563Z,1196
2023-05-06T04:50:00.458Z,1252
2023-05-06T04:55:00.507Z,1252
2023-05-06T05:00:00.487Z,1588
2023-05-06T05:05:00.524Z,1785
2023-05-06T05:10:00.564Z,2009
2023-05-06T05:15:00.690Z,2009
2023-05-06T05:20:00.483Z,2009
2023-05-06T05:25:00.716Z,2540
2023-05-06T05:30:00.516Z,2540
2023-05-06T05:35:00.642Z,2858
2023-05-06T05:40:00.616Z,3011
2023-05-06T05:45:00.549Z,3223
2023-05-06T05:50:00.512Z,3223
2023-05-06T05:55:00.459Z,3223
2023-05-06T06:00:00.588Z,3627
2023-05-06T06:05:00.716Z,4081
2023-05-06T06:10:00.562Z,4072
2023-05-06T06:15:00.490Z,4581
2023-05-06T06:20:00.547Z,4581
2023-05-06T06:25:00.517Z,4581
2023-05-06T06:30:00.614Z,5200
2023-05-06T06:35:00.468Z,6037
2023-05-06T06:40:00.540Z,6604
2023-05-06T06:45:00.534Z,7422
2023-05-06T06:50:00.469Z,7422
2023-05-06T06:55:00.585Z,7422
2023-05-06T07:00:00.533Z,7422
2023-05-06T07:05:00.491Z,7422
2023-05-06T07:10:00.514Z,7422
2023-05-06T07:15:00.461Z,7422
2023-05-06T07:20:00.771Z,8350
2023-05-06T07:25:00.494Z,8350
2023-05-06T07:30:00.535Z,7708
2023-05-06T07:35:00.507Z,7708
2023-05-06T07:40:00.457Z,7708
2023-05-06T07:45:00.627Z,7708
2023-05-06T07:50:00.556Z,8441
2023-05-06T07:55:00.458Z,8441
2023-05-06T08:00:00.819Z,8441
2023-05-06T08:05:00.502Z,8459
2023-05-06T08:10:00.629Z,8459
2023-05-06T08:15:00.521Z,8459
2023-05-06T08:20:00.517Z,8459
2023-05-06T08:25:00.503Z,9587
2023-05-06T08:30:00.498Z,10857
2023-05-06T08:35:00.678Z,11298
2023-05-06T08:40:00.524Z,11259
2023-05-06T08:45:00.443Z,11259
2023-05-06T08:50:00.490Z,11259
2023-05-06T08:55:00.491Z,11259
2023-05-06T09:00:00.731Z,11259
2023-05-06T09:05:00.496Z,12128
2023-05-06T09:10:00.515Z,9504
2023-05-06T09:15:00.802Z,11256
2023-05-06T09:20:00.530Z,11363
2023-05-06T09:25:00.533Z,9386
2023-05-06T09:30:00.605Z,12045
2023-05-06T09:35:01.285Z,11631
2023-05-06T09:40:00.464Z,11631
2023-05-06T09:45:01.920Z,11233
2023-05-06T09:50:00.516Z,13008
2023-05-06T09:55:00.506Z,13747
2023-05-06T10:00:00.760Z,15453
2023-05-06T10:05:00.802Z,14771
2023-05-06T10:10:00.609Z,14771
2023-05-06T10:15:00.473Z,14586
2023-05-06T10:20:00.508Z,14586
2023-05-06T10:25:00.562Z,14586
2023-05-06T10:30:00.512Z,12488
2023-05-06T10:35:00.591Z,14464
2023-05-06T10:40:00.513Z,11476
2023-05-06T10:45:00.507Z,14524
2023-05-06T10:50:00.499Z,14524
2023-05-06T10:55:00.471Z,14524
2023-05-06T11:00:00.511Z,12555
2023-05-06T11:05:00.497Z,13817
2023-05-06T11:10:00.558Z,14243
2023-05-06T11:15:00.642Z,16862
2023-05-06T11:20:00.563Z,16780
2023-05-06T11:25:00.458Z,19081
2023-05-06T11:30:00.520Z,16850
2023-05-06T11:35:00.562Z,16959
2023-05-06T11:40:00.562Z,19409
2023-05-06T11:45:00.530Z,17246
2023-05-06T11:50:00.640Z,19458
2023-05-06T11:55:00.476Z,19364
2023-05-06T12:00:00.498Z,17116
2023-05-06T12:10:00.450Z,24412
2023-05-06T12:15:00.563Z,24412
2023-05-06T12:20:00.545Z,27555
2023-05-06T12:25:00.491Z,19575
2023-05-06T12:30:00.524Z,32166
2023-05-06T12:35:00.500Z,32166
2023-05-06T12:40:00.427Z,36291
2023-05-06T12:45:00.529Z,36291
2023-05-06T12:50:00.450Z,36291
2023-05-06T12:55:00.586Z,36291
2023-05-06T13:00:00.503Z,37914
2023-05-06T13:05:00.661Z,37914
2023-05-06T13:10:00.480Z,36459
2023-05-06T13:15:00.473Z,41153
2023-05-06T13:20:00.503Z,19824
2023-05-06T13:25:00.730Z,38282
2023-05-06T13:30:00.506Z,35188
2023-05-06T13:35:00.429Z,15325
2023-05-06T13:40:00.466Z,13640
2023-05-06T13:45:00.508Z,12120
2023-05-06T13:50:00.525Z,13643
2023-05-06T13:55:00.493Z,31326
2023-05-06T14:00:00.516Z,33900
2023-05-06T14:05:00.601Z,19342
2023-05-06T14:10:00.601Z,42150
2023-05-06T14:15:00.501Z,14424
2023-05-06T14:20:00.733Z,8945
2023-05-06T14:25:00.593Z,7034
2023-05-06T14:30:00.486Z,6242
2023-05-06T14:35:00.489Z,5550
2023-05-06T14:40:00.477Z,5550
2023-05-06T14:45:00.422Z,5550
2023-05-06T14:50:00.500Z,7065
2023-05-06T14:55:00.517Z,22824
2023-05-06T15:00:00.574Z,13864
2023-05-06T15:05:03.812Z,20855
2023-05-06T15:10:00.538Z,15922
2023-05-06T15:15:00.624Z,12653
2023-05-06T15:20:00.573Z,9988
2023-05-06T15:25:00.469Z,8806
2023-05-06T15:30:00.613Z,11256
2023-05-06T15:35:00.528Z,7137
2023-05-06T15:40:00.780Z,3920
2023-05-06T15:45:00.556Z,3482
2023-05-06T15:50:01.644Z,3097
2023-05-06T15:55:00.619Z,3097
2023-05-06T16:00:01.250Z,3097
2023-05-06T16:05:00.833Z,3932
2023-05-06T16:10:00.434Z,3490
2023-05-06T16:15:00.505Z,3106
2023-05-06T16:20:00.489Z,2456
2023-05-06T16:25:00.462Z,2185
2023-05-06T16:30:00.460Z,1723
2023-05-06T16:35:00.602Z,1207
2023-05-06T16:40:00.459Z,953
2023-05-06T16:45:00.453Z,953
2023-05-06T16:50:00.735Z,953
2023-05-06T16:55:00.429Z,953
2023-05-06T17:00:00.736Z,1208
2023-05-06T17:05:00.491Z,1359
2023-05-06T17:10:00.721Z,950
2023-05-06T17:15:00.559Z,950
2023-05-06T17:20:00.468Z,950
2023-05-06T17:25:00.462Z,950
2023-05-06T17:30:00.424Z,750
2023-05-06T17:35:00.438Z,741
2023-05-06T17:40:00.434Z,741
2023-05-06T17:45:00.536Z,741
2023-05-06T17:50:00.491Z,948
2023-05-06T17:55:14.901Z,948
2023-05-06T18:00:00.494Z,948
2023-05-06T18:05:00.542Z,582
2023-05-06T18:10:00.487Z,434
2023-05-06T18:15:00.482Z,368
2023-05-06T18:20:00.595Z,312
2023-05-06T18:25:00.521Z,312
2023-05-06T18:30:00.523Z,223
2023-05-06T18:35:01.093Z,96
2023-05-06T18:40:00.593Z,68
2023-05-06T18:45:00.533Z,50
2023-05-06T18:50:00.460Z,36
2023-05-06T18:55:00.489Z,22
2023-05-06T19:00:00.521Z,22
2023-05-06T19:05:00.528Z,22
2023-05-06T19:10:00.515Z,22
2023-05-06T19:15:00.466Z,15
2023-05-06T19:20:00.489Z,8
2023-05-06T19:25:00.456Z,7
2023-05-06T19:30:00.454Z,7
2023-05-06T19:35:00.492Z,7
2023-05-06T19:40:00.509Z,7
2023-05-06T19:45:00.507Z,0
2023-05-06T19:50:00.505Z,0
2023-05-06T19:55:00.460Z,0
2023-05-06T20:00:00.555Z,0
2023-05-06T20:05:00.830Z,0
2023-05-06T20:10:00.624Z,0
2023-05-06T20:15:00.507Z,0
2023-05-06T20:20:02.668Z,0
2023-05-06T20:25:00.447Z,0
2023-05-06T20:30:00.475Z,0
2023-05-06T20:35:00.977Z,0
2023-05-06T20:40:01.130Z,0
2023-05-06T20:45:01.056Z,0
2023-05-06T20:50:00.912Z,0
2023-05-06T20:55:01.026Z,0
2023-05-06T21:00:01.244Z,0
2023-05-06T21:05:00.679Z,0
2023-05-06T21:10:01.615Z,0
2023-05-06T21:15:00.614Z,0
2023-05-06T21:20:00.799Z,0
2023-05-06T21:25:00.509Z,0
2023-05-06T21:30:01.008Z,0
2023-05-06T21:35:00.949Z,0
2023-05-06T21:40:00.625Z,0
2023-05-06T21:45:00.859Z,0
2023-05-06T21:50:00.863Z,0
2023-05-06T21:55:00.764Z,0
2023-05-06T22:00:00.956Z,0
2023-05-06T22:05:00.988Z,0
2023-05-06T22:10:00.981Z,0
2023-05-06T22:15:00.669Z,0
2023-05-06T22:20:01.797Z,0
2023-05-06T22:25:00.523Z,0
2023-05-06T22:30:00.588Z,0
2023-05-06T22:35:01.015Z,0
2023-05-06T22:40:00.783Z,0
2023-05-06T22:45:00.903Z,0
2023-05-06T22:50:00.800Z,0
2023-05-06T22:55:00.696Z,0
2023-05-06T23:00:01.215Z,0
2023-05-06T23:05:01.041Z,0
2023-05-06T23:10:00.630Z,0
2023-05-06T23:15:01.549Z,0
2023-05-06T23:20:00.811Z,0
2023-05-06T23:25:01.128Z,0
2023-05-06T23:30:01.932Z,0
2023-05-06T23:35:00.899Z,0
2023-05-06T23:40:00.790Z,0
2023-05-06T23:45:00.838Z,0
2023-05-06T23:50:00.563Z,0
2023-05-06T23:55:01.519Z,0
